Time;durP1;ratioP1;P1;durP2;ratioP2;P2;SDS_P1;SDS_P2;PMS_P1;PMS_P2;Temp;Humidity;BMP_temperature;BMP_pressure;BME280_temperature;BME280_humidity;BME280_pressure;Samples;Min_cycle;Max_cycle;Signal;HPM_P1;HPM_P2
2021/09/06 00:01:57;;;;;;;;;20.00;19.00;;;;;22.87;63.23;101808.91;5093196;27;45531;-78
2021/09/06 00:04:22;;;;;;;;;21.75;18.50;;;;;22.67;63.07;101772.06;5094123;27;57266;-78
2021/09/06 00:06:47;;;;;;;;;19.00;17.25;;;;;22.81;63.46;101811.19;5094751;27;45794;-78
2021/09/06 00:09:13;;;;;;;;;18.00;15.00;;;;;22.74;63.60;101797.41;5091985;27;45559;-78
2021/09/06 00:11:38;;;;;;;;;15.75;14.00;;;;;22.77;63.53;101823.97;5094313;27;45482;-78
2021/09/06 00:14:03;;;;;;;;;19.75;16.25;;;;;22.74;63.67;101816.16;5093896;27;46452;-78
2021/09/06 00:16:29;;;;;;;;;14.75;13.50;;;;;22.64;63.48;101805.28;5086636;27;45499;-78
2021/09/06 00:18:54;;;;;;;;;17.00;16.75;;;;;22.69;63.76;101817.50;5090301;27;45887;-78
2021/09/06 00:21:20;;;;;;;;;17.75;16.75;;;;;22.59;63.87;101804.78;5093930;27;45492;-78
2021/09/06 00:23:45;;;;;;;;;21.25;20.25;;;;;22.59;63.51;101810.16;5093098;27;46138;-78
2021/09/06 00:26:10;;;;;;;;;17.25;15.25;;;;;22.50;63.81;101799.28;5093306;27;45495;-78
2021/09/06 00:28:36;;;;;;;;;18.00;16.25;;;;;22.43;63.76;101798.06;5095731;27;45301;-78
2021/09/06 00:31:02;;;;;;;;;19.50;16.50;;;;;22.48;64.04;101806.59;5094196;27;45477;-78
2021/09/06 00:33:27;;;;;;;;;18.00;14.75;;;;;22.43;63.75;101809.63;5091552;27;46151;-78
2021/09/06 00:35:53;;;;;;;;;20.50;19.00;;;;;22.38;63.98;101803.75;5093554;27;45398;-78
2021/09/06 00:38:20;;;;;;;;;19.75;17.75;;;;;22.39;64.15;101810.81;5092250;27;45501;-78
2021/09/06 00:40:47;;;;;;;;;23.00;21.00;;;;;22.30;64.81;101799.00;5092163;27;45854;-78
2021/09/06 00:43:13;;;;;;;;;18.50;18.50;;;;;22.29;64.66;101801.78;5094063;27;46166;-78
2021/09/06 00:45:39;;;;;;;;;20.75;19.25;;;;;22.22;64.88;101801.38;5092444;27;45678;-78
2021/09/06 00:48:06;;;;;;;;;21.25;17.75;;;;;22.24;65.41;101809.28;5093464;27;45521;-78
2021/09/06 00:50:32;;;;;;;;;17.00;17.00;;;;;22.21;65.45;101807.72;5093215;27;45307;-78
2021/09/06 00:52:57;;;;;;;;;20.25;16.50;;;;;22.20;65.07;101807.84;5092989;27;46375;-78
2021/09/06 00:55:24;;;;;;;;;15.75;13.75;;;;;22.08;65.09;101798.84;5093424;27;45408;-78
2021/09/06 00:57:51;;;;;;;;;20.50;17.00;;;;;22.15;65.19;101813.53;5093098;27;45365;-78
2021/09/06 01:00:17;;;;;;;;;19.75;15.75;;;;;22.07;65.20;101810.53;5091930;27;45634;-78
2021/09/06 01:02:44;;;;;;;;;16.25;16.25;;;;;22.04;65.31;101808.94;5093008;27;46332;-78
2021/09/06 01:05:11;;;;;;;;;18.75;16.75;;;;;22.03;65.28;101814.41;5103106;27;45489;-78
2021/09/06 01:07:36;;;;;;;;;18.25;16.50;;;;;22.03;65.70;101822.44;5099670;27;45625;-78
2021/09/06 01:10:04;;;;;;;;;19.75;18.25;;;;;21.88;65.58;101801.19;5093751;27;45389;-78
2021/09/06 01:12:30;;;;;;;;;18.50;17.25;;;;;21.98;65.23;101819.22;5091930;27;46270;-78
2021/09/06 01:14:55;;;;;;;;;16.25;13.25;;;;;21.91;65.04;101815.31;5092309;27;52075;-78
2021/09/06 01:17:21;;;;;;;;;23.00;18.25;;;;;21.91;65.58;101820.66;5092553;27;45480;-78
2021/09/06 01:19:46;;;;;;;;;17.50;17.25;;;;;21.84;65.50;101821.13;5093023;27;45568;-78
2021/09/06 01:22:11;;;;;;;;;21.00;18.00;;;;;21.78;65.93;101824.25;5091940;27;45517;-78
2021/09/06 01:24:37;;;;;;;;;19.50;17.00;;;;;21.73;65.14;101818.38;5090964;27;45543;-78
2021/09/06 01:27:02;;;;;;;;;19.25;17.25;;;;;21.70;65.10;101809.72;5090039;27;45484;-78
2021/09/06 01:29:28;;;;;;;;;17.25;15.50;;;;;21.62;65.60;101818.31;5090114;27;45524;-78
2021/09/06 01:31:53;;;;;;;;;19.25;17.00;;;;;21.55;65.31;101807.16;5092452;27;45475;-78
2021/09/06 01:34:19;;;;;;;;;17.25;16.00;;;;;21.57;65.47;101817.78;5092194;27;45953;-78
2021/09/06 01:36:44;;;;;;;;;17.00;15.75;;;;;21.54;65.49;101820.66;5091592;27;45449;-78
2021/09/06 01:39:12;;;;;;;;;18.75;16.50;;;;;21.50;66.21;101821.84;5092585;27;50300;-78
2021/09/06 01:41:37;;;;;;;;;15.00;13.50;;;;;21.43;66.06;101812.56;5091963;27;46315;-78
2021/09/06 01:44:03;;;;;;;;;16.50;14.00;;;;;21.46;66.10;101823.91;5092526;27;45350;-78
2021/09/06 01:46:30;;;;;;;;;20.50;18.25;;;;;21.39;65.79;101811.91;5094866;27;45754;-78
2021/09/06 01:48:57;;;;;;;;;18.00;16.25;;;;;21.42;66.49;101830.44;5091378;27;45416;-77
2021/09/06 01:51:24;;;;;;;;;19.25;16.75;;;;;21.38;66.12;101833.44;5090891;27;45384;-78
2021/09/06 01:53:50;;;;;;;;;19.50;17.25;;;;;21.34;66.29;101827.44;5093095;27;45401;-79
2021/09/06 01:56:15;;;;;;;;;16.75;14.25;;;;;21.32;66.25;101832.91;5093711;27;45383;-79
2021/09/06 01:58:41;;;;;;;;;17.00;16.00;;;;;21.31;66.81;101833.00;5097835;27;45546;-78
2021/09/06 02:01:07;;;;;;;;;18.25;17.25;;;;;21.27;66.44;101831.47;5096667;27;45343;-78
2021/09/06 02:03:33;;;;;;;;;18.00;18.00;;;;;21.22;66.12;101831.81;5095720;27;45557;-79
2021/09/06 02:05:58;;;;;;;;;15.25;13.75;;;;;21.07;66.43;101815.03;5098332;27;45796;-78
2021/09/06 02:08:23;;;;;;;;;18.75;16.50;;;;;21.09;66.70;101829.16;5096032;27;45312;-78
2021/09/06 02:10:49;;;;;;;;;17.75;15.75;;;;;21.10;66.75;101840.69;5095543;27;54750;-78
2021/09/06 02:13:14;;;;;;;;;15.00;15.00;;;;;21.07;67.22;101832.88;5091893;27;45492;-78
2021/09/06 02:15:39;;;;;;;;;18.75;17.75;;;;;21.04;66.65;101831.28;5095541;27;45770;-78
2021/09/06 02:18:05;;;;;;;;;16.75;15.25;;;;;21.04;66.72;101835.78;5093084;27;50456;-78
2021/09/06 02:20:30;;;;;;;;;25.25;15.50;;;;;20.93;66.80;101815.13;5094683;27;45659;-78
2021/09/06 02:22:55;;;;;;;;;18.25;15.25;;;;;21.00;67.21;101837.81;5094490;27;45769;-78
2021/09/06 02:25:21;;;;;;;;;15.75;15.50;;;;;20.93;66.92;101828.47;5097490;27;45256;-78
2021/09/06 02:27:46;;;;;;;;;19.00;16.00;;;;;20.85;67.54;101820.16;5095909;27;45533;-78
2021/09/06 02:30:12;;;;;;;;;17.00;14.50;;;;;20.91;67.15;101838.44;5092489;27;46996;-78
2021/09/06 02:32:37;;;;;;;;;17.25;16.50;;;;;20.82;67.71;101821.19;5086146;27;45493;-78
2021/09/06 02:35:04;;;;;;;;;16.75;15.00;;;;;20.83;67.56;101825.63;5094995;27;45380;-78
2021/09/06 02:37:29;;;;;;;;;20.75;15.50;;;;;20.86;67.19;101837.88;5097836;27;45662;-78
2021/09/06 02:39:54;;;;;;;;;20.00;16.75;;;;;20.81;67.28;101840.88;5095285;27;46178;-78
2021/09/06 02:42:20;;;;;;;;;20.75;18.25;;;;;20.66;67.33;101819.69;5094898;27;45523;-78
2021/09/06 02:44:45;;;;;;;;;16.00;15.00;;;;;20.58;67.40;101810.41;5095316;27;47481;-78
2021/09/06 02:47:10;;;;;;;;;16.75;14.50;;;;;20.74;67.59;101844.09;5094876;27;45471;-78
2021/09/06 02:49:36;;;;;;;;;19.50;15.25;;;;;20.74;67.98;101846.75;5096979;27;50659;-78
2021/09/06 02:52:02;;;;;;;;;19.25;17.00;;;;;20.69;67.77;101833.72;5095710;27;46511;-79
2021/09/06 02:54:27;;;;;;;;;17.50;15.00;;;;;20.68;68.11;101850.69;5095010;27;45418;-78
2021/09/06 02:56:52;;;;;;;;;19.50;17.25;;;;;20.65;67.98;101844.69;5095080;27;45790;-80
2021/09/06 02:59:17;;;;;;;;;18.50;16.50;;;;;20.62;68.44;101847.56;5094727;27;52455;-79
2021/09/06 03:01:43;;;;;;;;;18.50;18.50;;;;;20.50;68.02;101835.91;5095881;27;45411;-78
2021/09/06 03:04:08;;;;;;;;;18.25;16.25;;;;;20.58;68.36;101845.13;5095430;27;56718;-78
2021/09/06 03:06:33;;;;;;;;;20.25;18.00;;;;;20.57;68.81;101848.75;5094872;27;49853;-78
2021/09/06 03:08:59;;;;;;;;;17.25;16.00;;;;;20.57;68.56;101853.25;5094660;27;45472;-79
2021/09/06 03:11:24;;;;;;;;;21.50;19.00;;;;;20.54;68.81;101851.63;5094887;27;45683;-78
2021/09/06 03:13:53;;;;;;;;;17.00;15.75;;;;;20.51;68.85;101842.94;5094878;27;45518;-79
2021/09/06 03:16:21;;;;;;;;;14.25;14.25;;;;;20.31;68.75;101810.41;5094983;27;45504;-79
2021/09/06 03:18:46;;;;;;;;;15.50;14.25;;;;;20.36;68.22;101831.47;5094170;27;46233;-78
2021/09/06 03:21:12;;;;;;;;;21.50;20.50;;;;;20.41;68.46;101840.03;5093461;27;45429;-78
2021/09/06 03:23:37;;;;;;;;;17.25;16.25;;;;;20.39;69.09;101854.44;5092378;27;56884;-78
2021/09/06 03:26:03;;;;;;;;;20.25;17.75;;;;;20.38;68.98;101848.22;5095325;27;45245;-79
2021/09/06 03:28:28;;;;;;;;;17.25;15.25;;;;;20.31;68.71;101829.09;5096298;27;46170;-79
2021/09/06 03:30:53;;;;;;;;;18.75;17.25;;;;;20.36;68.55;101843.94;5094034;27;51580;-80
2021/09/06 03:33:18;;;;;;;;;19.50;17.00;;;;;20.36;68.83;101841.28;5094501;27;45440;-78
2021/09/06 03:35:44;;;;;;;;;17.75;16.50;;;;;20.33;68.88;101840.53;5094789;27;45390;-79
2021/09/06 03:38:11;;;;;;;;;16.50;16.50;;;;;20.29;69.40;101847.03;5094023;27;50449;-81
2021/09/06 03:40:36;;;;;;;;;20.25;16.50;;;;;20.26;69.48;101839.25;5096972;27;45635;-78
2021/09/06 03:43:01;;;;;;;;;19.00;16.75;;;;;20.18;69.11;101828.19;5093211;27;45506;-78
2021/09/06 03:45:27;;;;;;;;;18.50;15.75;;;;;20.13;69.55;101829.47;5094091;27;45453;-78
2021/09/06 03:47:52;;;;;;;;;19.50;16.75;;;;;20.22;69.65;101847.53;5093955;27;46557;-78
2021/09/06 03:50:18;;;;;;;;;18.00;17.25;;;;;20.20;69.75;101836.09;5093078;27;45391;-78
2021/09/06 03:52:44;;;;;;;;;19.50;17.50;;;;;20.18;69.83;101846.03;5095372;27;45456;-78
2021/09/06 03:55:09;;;;;;;;;18.00;17.00;;;;;20.17;69.50;101836.31;5095424;27;45779;-78
2021/09/06 03:57:35;;;;;;;;;16.50;15.25;;;;;20.17;70.01;101836.31;5093593;27;46051;-78
2021/09/06 04:00:00;;;;;;;;;19.75;18.75;;;;;20.11;69.71;101824.22;5093812;27;45538;-82
2021/09/06 04:02:25;;;;;;;;;21.00;16.50;;;;;20.14;69.93;101839.16;5092749;27;45256;-78
2021/09/06 04:04:52;;;;;;;;;17.25;16.25;;;;;20.06;69.95;101826.34;5094328;27;45414;-80
2021/09/06 04:07:17;;;;;;;;;20.50;16.50;;;;;20.10;70.02;101838.53;5093935;27;46122;-78
2021/09/06 04:09:42;;;;;;;;;20.75;17.75;;;;;20.07;70.37;101842.25;5094235;27;45416;-78
2021/09/06 04:12:08;;;;;;;;;21.50;19.25;;;;;20.07;70.56;101842.25;5092318;27;45466;-79
2021/09/06 04:14:34;;;;;;;;;19.00;17.75;;;;;20.02;70.32;101835.50;5093610;27;45425;-79
2021/09/06 04:17:00;;;;;;;;;18.75;17.00;;;;;19.99;69.93;101838.34;5093900;27;46245;-79
2021/09/06 04:19:30;;;;;;;;;20.75;17.75;;;;;19.85;70.16;101806.41;5094640;27;45386;-78
2021/09/06 04:21:56;;;;;;;;;21.00;18.50;;;;;20.03;70.29;101845.22;5093376;27;45390;-79
2021/09/06 04:24:23;;;;;;;;;21.00;18.25;;;;;19.99;70.25;101844.56;5094460;27;45426;-80
2021/09/06 04:26:49;;;;;;;;;22.50;19.25;;;;;19.92;70.38;101831.72;5091529;27;46274;-78
2021/09/06 04:29:14;;;;;;;;;20.00;19.00;;;;;19.95;70.31;101843.06;5092463;27;45361;-79
2021/09/06 04:31:39;;;;;;;;;18.50;16.50;;;;;19.96;70.36;101846.56;5094724;27;49065;-78
2021/09/06 04:34:04;;;;;;;;;21.50;20.50;;;;;19.87;70.36;101840.00;5094220;27;45431;-78
2021/09/06 04:36:30;;;;;;;;;20.00;19.75;;;;;19.93;70.42;101850.28;5093079;27;46051;-78
2021/09/06 04:38:55;;;;;;;;;25.00;22.50;;;;;19.87;70.61;101842.69;5094297;27;45338;-80
2021/09/06 04:41:20;;;;;;;;;18.50;18.50;;;;;19.90;71.19;101855.84;5092555;27;45163;-78
2021/09/06 04:43:47;;;;;;;;;22.00;19.75;;;;;19.84;71.13;101850.91;5093239;27;45293;-78
2021/09/06 04:46:13;;;;;;;;;24.50;19.00;;;;;19.88;71.23;101859.53;5092895;27;48209;-79
2021/09/06 04:48:38;;;;;;;;;25.00;20.00;;;;;19.85;71.34;101860.59;5092750;27;51476;-78
2021/09/06 04:51:03;;;;;;;;;22.50;20.50;;;;;19.85;71.38;101865.94;5091910;27;46295;-78
2021/09/06 04:53:29;;;;;;;;;26.50;21.50;;;;;19.84;71.46;101877.56;5091731;27;45372;-78
2021/09/06 04:55:54;;;;;;;;;24.00;22.50;;;;;19.83;71.55;101878.50;5093057;27;45355;-79
2021/09/06 04:58:19;;;;;;;;;20.50;17.75;;;;;19.69;71.95;101849.22;5094635;27;45428;-79
2021/09/06 05:00:45;;;;;;;;;22.50;19.00;;;;;19.73;71.60;101867.59;5093259;27;45471;-78
2021/09/06 05:03:10;;;;;;;;;22.25;22.25;;;;;19.71;71.58;101866.81;5093612;27;45314;-78
2021/09/06 05:05:35;;;;;;;;;23.00;21.25;;;;;19.78;71.81;101885.94;5091069;27;56714;-79
2021/09/06 05:08:01;;;;;;;;;22.25;19.75;;;;;19.72;71.45;101867.66;5093075;27;45409;-78
2021/09/06 05:10:26;;;;;;;;;21.25;18.75;;;;;19.78;71.85;101884.16;5094714;27;45772;-78
2021/09/06 05:12:52;;;;;;;;;24.50;21.75;;;;;19.69;71.33;101878.53;5092097;27;45747;-80
2021/09/06 05:15:17;;;;;;;;;25.00;20.75;;;;;19.74;71.86;101881.78;5093093;27;46385;-78
2021/09/06 05:17:42;;;;;;;;;27.00;22.25;;;;;19.73;71.91;101886.25;5092467;27;45420;-79
2021/09/06 05:20:08;;;;;;;;;24.75;22.00;;;;;19.64;71.55;101872.66;5091146;27;45506;-78
2021/09/06 05:22:34;;;;;;;;;27.50;22.25;;;;;19.75;71.81;101892.34;5094663;27;45353;-79
2021/09/06 05:24:59;;;;;;;;;21.25;19.50;;;;;19.76;72.25;101898.53;5091900;27;45912;-79
2021/09/06 05:27:24;;;;;;;;;29.00;25.00;;;;;19.75;72.39;101902.16;5092584;27;45494;-78
2021/09/06 05:29:50;;;;;;;;;21.25;21.00;;;;;19.74;72.48;101906.63;5092929;27;45388;-78
2021/09/06 05:32:15;;;;;;;;;23.00;21.75;;;;;19.76;72.42;101909.19;5096086;27;45443;-80
2021/09/06 05:34:41;;;;;;;;;27.25;26.25;;;;;19.76;72.71;101910.06;5097163;27;45364;-78
2021/09/06 05:37:06;;;;;;;;;26.75;22.75;;;;;19.67;72.32;101901.78;5097356;27;45415;-79
2021/09/06 05:39:31;;;;;;;;;23.00;22.75;;;;;19.82;72.26;101924.81;5096463;27;45405;-77
2021/09/06 05:41:57;;;;;;;;;27.75;24.75;;;;;19.74;72.90;101911.97;5095436;27;45610;-81
2021/09/06 05:44:22;;;;;;;;;28.75;25.00;;;;;19.86;72.77;101925.50;5094612;27;46353;-78
2021/09/06 05:46:48;;;;;;;;;28.25;27.00;;;;;19.81;72.83;101921.28;5096104;27;45743;-78
2021/09/06 05:49:13;;;;;;;;;32.25;23.00;;;;;19.87;72.73;101924.53;5095843;27;45679;-79
2021/09/06 05:51:39;;;;;;;;;27.75;25.00;;;;;19.84;72.27;101917.59;5085180;27;45434;-79
2021/09/06 05:54:04;;;;;;;;;25.25;20.50;;;;;19.98;72.48;101936.22;5090563;27;46017;-78
2021/09/06 05:56:29;;;;;;;;;29.00;27.75;;;;;20.00;72.54;101938.81;5090591;27;45487;-78
2021/09/06 05:58:55;;;;;;;;;29.75;24.50;;;;;20.08;72.39;101941.84;5093634;27;45656;-77
2021/09/06 06:01:20;;;;;;;;;29.50;28.50;;;;;20.08;72.17;101928.50;5092865;27;45544;-78
2021/09/06 06:03:45;;;;;;;;;25.75;22.50;;;;;20.14;72.21;101940.59;5094089;27;45539;-79
2021/09/06 06:06:11;;;;;;;;;25.00;24.75;;;;;20.19;72.54;101941.16;5085219;27;45437;-78
2021/09/06 06:08:36;;;;;;;;;26.75;22.25;;;;;20.29;72.63;101956.47;5086665;27;47075;-78
2021/09/06 06:11:02;;;;;;;;;39.25;32.75;;;;;20.28;71.95;101940.56;5090037;27;45508;-79
2021/09/06 06:13:27;;;;;;;;;37.50;30.50;;;;;20.39;71.48;101948.72;5091895;27;46490;-80
2021/09/06 06:15:52;;;;;;;;;28.00;23.50;;;;;20.50;71.81;101956.94;5086451;27;45491;-79
2021/09/06 06:18:18;;;;;;;;;39.25;27.75;;;;;20.53;71.26;101946.06;5089723;27;49841;-79
2021/09/06 06:20:43;;;;;;;;;33.75;28.50;;;;;20.69;71.23;101955.72;5090617;27;45725;-79
2021/09/06 06:23:08;;;;;;;;;25.75;23.75;;;;;20.70;71.25;101949.44;5089552;27;45627;-79
2021/09/06 06:25:34;;;;;;;;;29.00;26.50;;;;;20.77;71.19;101942.72;5093363;27;45285;-79
2021/09/06 06:27:59;;;;;;;;;32.75;27.00;;;;;20.93;70.78;101964.75;5082543;27;45355;-79
2021/09/06 06:30:26;;;;;;;;;30.00;28.00;;;;;20.91;70.17;101948.00;5091838;27;45384;-79
2021/09/06 06:32:51;;;;;;;;;35.75;27.25;;;;;21.04;69.92;101948.88;5097373;27;46046;-79
2021/09/06 06:35:17;;;;;;;;;31.75;27.75;;;;;21.05;69.89;101945.25;5094879;27;45546;-78
2021/09/06 06:37:42;;;;;;;;;35.00;29.00;;;;;21.26;69.90;101964.31;5088468;27;45767;-79
2021/09/06 06:40:08;;;;;;;;;37.50;29.25;;;;;21.54;69.94;101965.97;5093837;27;45420;-80
2021/09/06 06:42:33;;;;;;;;;25.75;25.00;;;;;21.83;69.64;101969.28;5099595;27;45615;-80
2021/09/06 06:44:59;;;;;;;;;32.00;26.75;;;;;22.02;68.43;101981.34;5098110;27;54146;-81
2021/09/06 06:47:24;;;;;;;;;32.25;27.75;;;;;22.13;68.17;101971.63;5092342;27;45491;-80
2021/09/06 06:49:49;;;;;;;;;33.75;28.00;;;;;22.25;67.33;101967.19;5091046;27;45482;-80
2021/09/06 06:52:15;;;;;;;;;29.25;27.50;;;;;22.69;67.53;101965.72;5085376;27;46784;-80
2021/09/06 06:54:40;;;;;;;;;26.00;23.50;;;;;22.91;66.24;101944.41;5087892;27;45507;-80
2021/09/06 06:57:06;;;;;;;;;31.25;24.50;;;;;23.18;65.77;101965.59;5096579;27;45555;-80
2021/09/06 06:59:33;;;;;;;;;29.00;23.75;;;;;23.25;65.49;101965.97;5094883;27;45356;-80
2021/09/06 07:01:58;;;;;;;;;40.25;28.50;;;;;23.44;64.84;101971.63;5089262;27;45539;-80
2021/09/06 07:04:23;;;;;;;;;29.00;25.00;;;;;23.60;64.81;101975.81;5090709;27;45526;-80
2021/09/06 07:06:48;;;;;;;;;25.25;22.50;;;;;23.75;64.38;101979.97;5083795;27;45484;-80
2021/09/06 07:09:14;;;;;;;;;29.50;23.25;;;;;23.71;63.04;101962.41;5082901;27;45642;-80
2021/09/06 07:11:39;;;;;;;;;29.25;27.75;;;;;23.79;62.99;101964.47;5092068;27;45476;-80
2021/09/06 07:14:04;;;;;;;;;33.25;30.75;;;;;23.88;62.56;101971.81;5094344;27;46020;-85
2021/09/06 07:16:30;;;;;;;;;30.25;28.50;;;;;23.89;62.29;101973.53;5088360;27;45533;-80
2021/09/06 07:18:55;;;;;;;;;35.00;26.50;;;;;23.86;61.53;101976.47;5094463;27;45433;-81
2021/09/06 07:21:20;;;;;;;;;26.00;23.25;;;;;23.87;61.96;101984.38;5091602;27;45526;-82
2021/09/06 07:23:46;;;;;;;;;31.50;25.50;;;;;23.88;61.82;101987.91;5090087;27;45363;-80
2021/09/06 07:26:11;;;;;;;;;21.00;18.75;;;;;23.83;61.42;101982.91;5085701;27;45971;-79
2021/09/06 07:28:37;;;;;;;;;26.25;22.50;;;;;23.93;61.85;101993.78;5083256;27;45445;-79
2021/09/06 07:31:02;;;;;;;;;21.75;19.50;;;;;23.92;61.98;101986.72;5084473;27;46839;-79
2021/09/06 07:33:27;;;;;;;;;24.50;19.25;;;;;24.04;61.04;101998.28;5085984;27;45623;-79
2021/09/06 07:35:53;;;;;;;;;21.00;16.50;;;;;24.06;60.63;101997.19;5093438;27;45384;-79
2021/09/06 07:38:18;;;;;;;;;20.00;18.75;;;;;24.11;60.94;101994.97;5084622;27;45564;-80
2021/09/06 07:40:43;;;;;;;;;21.25;17.75;;;;;24.13;60.24;102005.63;5092386;27;45953;-79
2021/09/06 07:43:09;;;;;;;;;20.75;16.00;;;;;24.06;60.06;101986.44;5088687;27;45500;-77
2021/09/06 07:45:35;;;;;;;;;18.00;17.75;;;;;24.25;59.74;101998.41;5084440;27;45857;-80
2021/09/06 07:48:01;;;;;;;;;20.75;17.50;;;;;24.31;58.95;102001.44;5083697;27;45622;-78
2021/09/06 07:50:26;;;;;;;;;19.75;17.75;;;;;24.43;58.73;102007.66;5083237;27;45759;-79
2021/09/06 07:52:51;;;;;;;;;18.75;17.50;;;;;24.56;59.01;102008.38;5087791;27;46514;-78
2021/09/06 07:55:17;;;;;;;;;20.25;17.75;;;;;24.63;58.93;102004.22;5094271;27;45323;-78
2021/09/06 07:57:42;;;;;;;;;19.00;19.00;;;;;24.80;58.59;102018.13;5087241;27;45453;-79
2021/09/06 08:00:08;;;;;;;;;18.00;16.50;;;;;24.90;57.84;102006.47;5088653;27;46096;-79
2021/09/06 08:02:47;;;;;;;;;18.50;17.00;;;;;25.01;57.55;102010.94;5087972;27;45811;-80
2021/09/06 08:05:13;;;;;;;;;14.75;14.75;;;;;25.16;57.72;102015.06;5091961;27;45417;-79
2021/09/06 08:07:38;;;;;;;;;19.50;17.50;;;;;25.32;56.99;102020.00;5080861;27;49293;-79
2021/09/06 08:10:04;;;;;;;;;22.00;19.00;;;;;25.46;56.97;102021.50;5089780;27;55825;-79
2021/09/06 08:12:29;;;;;;;;;20.25;15.25;;;;;25.64;56.60;102019.91;5092445;27;45618;-79
2021/09/06 08:14:54;;;;;;;;;16.50;15.25;;;;;25.80;56.26;102015.94;5090120;27;45498;-79
2021/09/06 08:17:20;;;;;;;;;27.00;17.75;;;;;26.06;55.51;102029.81;5087110;27;50880;-79
2021/09/06 08:19:45;;;;;;;;;23.50;19.00;;;;;26.24;55.72;102020.91;5090848;27;45545;-79
2021/09/06 08:22:10;;;;;;;;;21.25;20.25;;;;;26.40;54.81;102020.41;5082944;27;52869;-80
2021/09/06 08:24:37;;;;;;;;;18.25;16.75;;;;;26.65;54.43;102032.56;5091430;27;46449;-80
2021/09/06 08:27:03;;;;;;;;;18.00;15.75;;;;;26.98;53.90;102025.06;5089988;27;45310;-81
2021/09/06 08:29:28;;;;;;;;;16.75;16.50;;;;;27.80;54.04;102035.38;5084570;27;45567;-81
2021/09/06 08:31:53;;;;;;;;;16.00;15.00;;;;;28.71;53.32;102019.28;5083257;27;45824;-81
2021/09/06 08:34:19;;;;;;;;;21.50;18.25;;;;;30.37;50.63;102022.88;5084097;27;45543;-80
2021/09/06 08:36:44;;;;;;;;;18.50;16.00;;;;;31.79;47.38;102034.34;5083791;27;45560;-81
2021/09/06 08:39:09;;;;;;;;;24.00;18.00;;;;;33.44;47.22;102028.72;5086260;27;46925;-80
2021/09/06 08:41:35;;;;;;;;;17.50;16.25;;;;;35.90;44.57;102026.81;5089488;27;45629;-80
2021/09/06 08:44:01;;;;;;;;;14.75;14.50;;;;;37.71;41.91;102021.53;5096557;27;45248;-80
2021/09/06 08:46:26;;;;;;;;;19.00;16.50;;;;;39.83;38.38;102015.50;5086532;27;45704;-80
2021/09/06 08:48:52;;;;;;;;;15.00;14.50;;;;;41.81;34.97;102002.47;5088956;27;45415;-81
2021/09/06 08:51:18;;;;;;;;;16.50;16.00;;;;;43.82;32.99;102036.19;5080528;27;45418;-80
2021/09/06 08:53:44;;;;;;;;;17.75;14.75;;;;;45.26;31.56;102031.84;5079865;27;45450;-80
2021/09/06 08:56:09;;;;;;;;;15.50;13.25;;;;;46.02;29.46;102034.22;5082020;27;45362;-80
2021/09/06 08:58:34;;;;;;;;;19.75;15.75;;;;;45.83;29.42;102035.81;5087590;27;46188;-81
2021/09/06 09:01:00;;;;;;;;;14.75;13.25;;;;;45.09;28.41;102032.00;5087787;27;45489;-80
2021/09/06 09:03:26;;;;;;;;;16.75;15.00;;;;;44.43;28.37;102039.69;5088309;27;45562;-80
2021/09/06 09:05:59;;;;;;;;;14.75;13.75;;;;;43.82;28.88;102036.19;5090950;27;45346;-80
2021/09/06 09:08:25;;;;;;;;;12.75;12.75;;;;;43.28;29.23;102028.47;5078296;27;45516;-80
2021/09/06 09:10:50;;;;;;;;;15.25;15.00;;;;;43.14;30.02;102041.81;5089214;27;45321;-79
2021/09/06 09:13:16;;;;;;;;;17.25;15.50;;;;;42.73;29.50;102038.31;5078362;27;45381;-80
2021/09/06 09:15:53;;;;;;;;;15.00;12.75;;;;;42.28;29.50;102045.72;5082662;27;45552;-81
2021/09/06 09:18:25;;;;;;;;;17.25;14.50;;;;;41.99;29.57;102034.63;5081371;27;46002;-80
2021/09/06 09:20:58;;;;;;;;;13.00;13.00;;;;;41.82;29.29;102037.31;5089899;27;45751;-80
2021/09/06 09:23:34;;;;;;;;;15.50;13.00;;;;;41.61;29.36;102027.72;5105595;27;45372;-81
2021/09/06 09:26:01;;;;;;;;;10.75;10.75;;;;;41.32;28.51;102031.41;5091953;27;45506;-82
2021/09/06 09:28:28;;;;;;;;;12.50;12.00;;;;;40.78;29.29;102034.19;5090109;27;48493;-81
2021/09/06 09:31:06;;;;;;;;;15.50;13.75;;;;;40.39;29.67;102030.06;5086633;27;45757;-79
2021/09/06 09:33:57;;;;;;;;;11.50;10.75;;;;;40.21;29.40;102033.72;5089372;27;46017;-82
2021/09/06 09:36:31;;;;;;;;;12.50;12.50;;;;;40.06;29.92;102034.13;5082238;27;45437;-80
2021/09/06 09:39:19;;;;;;;;;14.50;13.00;;;;;40.05;29.31;102029.66;5079361;27;45504;-79
2021/09/06 09:41:47;;;;;;;;;13.50;12.25;;;;;40.10;29.90;102040.00;5084939;27;45873;-80
2021/09/06 09:44:21;;;;;;;;;14.50;14.00;;;;;40.10;29.10;102032.59;5092311;27;45471;-80
2021/09/06 09:47:00;;;;;;;;;13.75;12.00;;;;;39.97;29.19;102038.22;5081750;27;45863;-79
2021/09/06 09:49:28;;;;;;;;;14.25;12.00;;;;;39.81;29.91;102038.84;5089312;27;47088;-79
2021/09/06 09:51:54;;;;;;;;;11.75;10.25;;;;;39.81;29.85;102036.91;5085689;27;45732;-80
2021/09/06 09:54:20;;;;;;;;;10.25;10.25;;;;;39.84;29.72;102039.22;5086412;27;45389;-79
2021/09/06 09:56:46;;;;;;;;;13.00;12.00;;;;;39.91;29.95;102034.47;5092341;27;45424;-80
2021/09/06 09:59:14;;;;;;;;;13.50;13.25;;;;;39.95;29.83;102032.13;5094236;27;45487;-80
2021/09/06 10:01:57;;;;;;;;;11.75;11.50;;;;;39.80;29.02;102031.66;5077722;27;45441;-80
2021/09/06 10:04:27;;;;;;;;;10.50;10.50;;;;;39.85;29.83;102021.63;5080657;27;45413;-79
2021/09/06 10:06:54;;;;;;;;;11.75;11.00;;;;;40.13;29.97;102025.75;5086102;27;45539;-78
2021/09/06 10:09:20;;;;;;;;;12.25;11.00;;;;;40.49;29.55;102029.50;5083194;27;45467;-79
2021/09/06 10:11:46;;;;;;;;;10.25;10.25;;;;;40.82;28.81;102029.88;5077781;27;45477;-79
2021/09/06 10:14:11;;;;;;;;;13.25;13.00;;;;;41.25;29.15;102030.69;5091872;27;45436;-81
2021/09/06 10:16:38;;;;;;;;;16.00;13.00;;;;;41.49;28.40;102023.28;5087030;27;45580;-80
2021/09/06 10:19:09;;;;;;;;;13.50;12.00;;;;;41.53;27.34;102030.00;5082988;27;45433;-80
2021/09/06 10:21:44;;;;;;;;;15.50;11.50;;;;;41.14;27.10;102026.84;5094099;27;45893;-79
2021/09/06 10:24:14;;;;;;;;;13.00;10.25;;;;;40.58;28.08;102022.63;5089531;27;45425;-81
2021/09/06 10:26:40;;;;;;;;;11.25;11.00;;;;;40.01;28.32;102027.59;5080815;27;45452;-79
2021/09/06 10:29:15;;;;;;;;;13.50;13.00;;;;;39.59;28.37;102022.75;5078865;27;46146;-80
2021/09/06 10:31:41;;;;;;;;;11.25;11.25;;;;;39.32;28.82;102019.41;5095929;27;45381;-79
2021/09/06 10:34:08;;;;;;;;;11.75;11.75;;;;;39.22;29.23;102013.59;5101432;27;45348;-79
2021/09/06 10:36:34;;;;;;;;;14.00;12.00;;;;;39.26;28.84;102024.97;5091541;27;45423;-79
2021/09/06 10:39:06;;;;;;;;;12.50;11.50;;;;;39.17;28.96;102015.31;5086754;27;46283;-79
2021/09/06 10:41:43;;;;;;;;;11.00;10.75;;;;;39.07;29.31;102013.91;5080255;27;46010;-80
2021/09/06 10:44:09;;;;;;;;;11.00;10.75;;;;;39.06;29.25;102011.38;5087215;27;45464;-79
2021/09/06 10:46:34;;;;;;;;;9.25;8.50;;;;;38.98;29.70;102009.75;5081092;27;45358;-80
2021/09/06 10:49:05;;;;;;;;;14.00;13.00;;;;;38.70;29.36;102007.41;5091121;27;45480;-81
2021/09/06 10:51:32;;;;;;;;;14.00;10.75;;;;;38.44;29.14;102010.31;5092243;27;45450;-79
2021/09/06 10:54:01;;;;;;;;;12.25;11.00;;;;;38.22;29.96;102009.78;5087486;27;47271;-80
2021/09/06 10:56:27;;;;;;;;;11.50;11.50;;;;;38.10;30.28;101998.63;5080442;27;45314;-80
2021/09/06 10:58:54;;;;;;;;;11.25;9.75;;;;;37.99;30.21;101996.56;5084214;27;45407;-79
2021/09/06 11:01:19;;;;;;;;;10.75;9.50;;;;;37.88;30.17;101998.06;5086351;27;45595;-80
2021/09/06 11:03:46;;;;;;;;;13.50;12.25;;;;;37.82;30.61;101988.81;5088590;27;45594;-79
2021/09/06 11:06:11;;;;;;;;;14.75;14.00;;;;;37.80;30.59;101998.31;5091709;27;45463;-78